Time;durP1;ratioP1;P1;durP2;ratioP2;P2;SDS_P1;SDS_P2;PMS_P1;PMS_P2;Temp;Humidity;BMP_temperature;BMP_pressure;BME280_temperature;BME280_humidity;BME280_pressure;Samples;Min_cycle;Max_cycle;Signal;HPM_P1;HPM_P2
2021/03/13 00:00:36;;;;;;;2.23;1.43;;;;;;;;;;5107292;28;20202;-43
2021/03/13 00:03:01;;;;;;;2.80;1.70;;;;;;;;;;5107431;28;20303;-44
2021/03/13 00:05:28;;;;;;;2.70;1.63;;;;;;;;;;5109638;27;20172;-44
2021/03/13 00:07:54;;;;;;;2.67;1.67;;;;;;;;;;5113693;27;20183;-44
2021/03/13 00:10:19;;;;;;;1.60;1.50;;;;;;;;;;5111448;28;20605;-43
2021/03/13 00:12:45;;;;;;;1.50;1.33;;;;;;;;;;5111736;28;20655;-44
2021/03/13 00:15:14;;;;;;;2.10;1.60;;;;;;;;;;5112109;28;20189;-44
2021/03/13 00:17:39;;;;;;;2.50;2.00;;;;;;;;;;5100630;28;20181;-44
2021/03/13 00:20:05;;;;;;;3.13;2.60;;;;;;;;;;5112044;28;20597;-44
2021/03/13 00:22:30;;;;;;;2.97;2.27;;;;;;;;;;5111761;28;20176;-43
2021/03/13 00:24:55;;;;;;;2.83;2.13;;;;;;;;;;5111776;28;20183;-43
2021/03/13 00:27:20;;;;;;;2.30;2.10;;;;;;;;;;5111010;28;20674;-44
2021/03/13 00:29:45;;;;;;;2.20;2.10;;;;;;;;;;5111290;28;20176;-44
2021/03/13 00:32:10;;;;;;;5.05;2.13;;;;;;;;;;5122475;27;20183;-44
2021/03/13 00:34:35;;;;;;;2.70;2.50;;;;;;;;;;5114296;27;20598;-44
2021/03/13 00:37:01;;;;;;;4.33;2.17;;;;;;;;;;5111465;28;20188;-44
2021/03/13 00:39:26;;;;;;;2.53;2.33;;;;;;;;;;5111649;28;20228;-44
2021/03/13 00:41:51;;;;;;;2.53;2.33;;;;;;;;;;5110884;28;20256;-44
2021/03/13 00:44:16;;;;;;;2.00;1.90;;;;;;;;;;5111361;28;20182;-43
2021/03/13 00:46:43;;;;;;;2.10;2.00;;;;;;;;;;5110688;28;20173;-44
2021/03/13 00:49:08;;;;;;;2.00;1.90;;;;;;;;;;5111025;28;20170;-43
2021/03/13 00:51:34;;;;;;;2.53;1.70;;;;;;;;;;5111122;28;20604;-43
2021/03/13 00:53:59;;;;;;;1.73;1.63;;;;;;;;;;5111236;28;20226;-43
2021/03/13 00:56:24;;;;;;;1.42;1.35;;;;;;;;;;5110298;28;20563;-43
2021/03/13 00:58:49;;;;;;;1.73;1.60;;;;;;;;;;5110607;28;20816;-42
2021/03/13 01:01:15;;;;;;;1.40;1.30;;;;;;;;;;5111061;28;20279;-42
2021/03/13 01:03:40;;;;;;;1.93;1.43;;;;;;;;;;5110791;28;20167;-42
2021/03/13 01:06:05;;;;;;;3.27;1.37;;;;;;;;;;5110315;28;20181;-42
2021/03/13 01:08:30;;;;;;;2.03;1.43;;;;;;;;;;5111264;28;20176;-42
2021/03/13 01:10:55;;;;;;;1.63;1.10;;;;;;;;;;5109158;28;20190;-43
2021/03/13 01:13:21;;;;;;;1.23;1.17;;;;;;;;;;5110880;28;20221;-43
2021/03/13 01:15:46;;;;;;;1.30;1.20;;;;;;;;;;5110508;28;20261;-43
2021/03/13 01:18:11;;;;;;;1.40;1.30;;;;;;;;;;5092286;28;20202;-43
2021/03/13 01:20:37;;;;;;;1.20;1.10;;;;;;;;;;5110777;28;20201;-43
2021/03/13 01:23:02;;;;;;;0.83;0.83;;;;;;;;;;5110597;28;20174;-42
2021/03/13 01:25:28;;;;;;;4.23;0.93;;;;;;;;;;5110213;28;20243;-42
2021/03/13 01:27:53;;;;;;;1.00;1.00;;;;;;;;;;5110012;28;20170;-42
2021/03/13 01:30:20;;;;;;;0.80;0.80;;;;;;;;;;5110798;28;20644;-42
2021/03/13 01:32:46;;;;;;;1.00;0.90;;;;;;;;;;5110650;28;20391;-43
2021/03/13 01:35:11;;;;;;;0.90;0.90;;;;;;;;;;5109614;28;21167;-43
2021/03/13 01:37:37;;;;;;;1.10;0.90;;;;;;;;;;5110695;28;20666;-43
2021/03/13 01:40:06;;;;;;;1.07;0.90;;;;;;;;;;5109882;28;20203;-43
2021/03/13 01:42:32;;;;;;;1.13;0.90;;;;;;;;;;5110077;28;20168;-43
2021/03/13 01:44:57;;;;;;;0.80;0.80;;;;;;;;;;5110557;28;21171;-43
2021/03/13 01:47:23;;;;;;;1.50;1.00;;;;;;;;;;5109815;28;20538;-43
2021/03/13 01:49:49;;;;;;;1.07;1.07;;;;;;;;;;5109800;28;20197;-43
2021/03/13 01:52:15;;;;;;;1.20;1.10;;;;;;;;;;5109786;28;20596;-43
2021/03/13 01:54:40;;;;;;;1.50;1.00;;;;;;;;;;5109267;28;20653;-43
2021/03/13 01:57:06;;;;;;;1.07;0.80;;;;;;;;;;5109528;28;20173;-43
2021/03/13 01:59:31;;;;;;;3.40;1.10;;;;;;;;;;5109755;28;20184;-43
2021/03/13 02:01:56;;;;;;;1.47;0.87;;;;;;;;;;5108331;28;20660;-43
2021/03/13 02:04:21;;;;;;;1.00;0.90;;;;;;;;;;5109436;28;20656;-44
2021/03/13 02:06:53;;;;;;;1.00;1.00;;;;;;;;;;5109958;28;20209;-43
2021/03/13 02:09:18;;;;;;;1.07;1.07;;;;;;;;;;5109701;28;20173;-43
2021/03/13 02:12:03;;;;;;;3.78;1.23;;;;;;;;;;5108928;28;20644;-43
2021/03/13 02:14:43;;;;;;;1.90;0.90;;;;;;;;;;5107396;28;20183;-42
2021/03/13 02:17:15;;;;;;;1.13;0.97;;;;;;;;;;5092301;28;20575;-42
2021/03/13 02:19:49;;;;;;;0.87;0.87;;;;;;;;;;5109607;28;20678;-43
2021/03/13 02:22:16;;;;;;;1.77;1.20;;;;;;;;;;5108894;28;20639;-43
2021/03/13 02:25:00;;;;;;;4.80;1.00;;;;;;;;;;5109586;28;20688;-43
2021/03/13 02:27:27;;;;;;;1.33;0.90;;;;;;;;;;5108069;28;20597;-43
2021/03/13 02:29:52;;;;;;;1.67;0.90;;;;;;;;;;5109058;28;20717;-43
2021/03/13 02:32:21;;;;;;;2.00;1.00;;;;;;;;;;5109482;27;21632;-44
2021/03/13 02:34:47;;;;;;;1.03;1.00;;;;;;;;;;5108999;28;20166;-44
2021/03/13 02:37:21;;;;;;;0.80;0.80;;;;;;;;;;5109209;28;20613;-45
2021/03/13 02:39:48;;;;;;;0.80;0.77;;;;;;;;;;5109403;28;20636;-44
2021/03/13 02:42:13;;;;;;;1.13;1.03;;;;;;;;;;5108627;28;20633;-44
2021/03/13 02:44:39;;;;;;;1.50;1.00;;;;;;;;;;5109233;28;20584;-43
2021/03/13 02:47:05;;;;;;;2.43;0.97;;;;;;;;;;5108776;28;20204;-44
2021/03/13 02:49:32;;;;;;;0.93;0.83;;;;;;;;;;5109193;28;20973;-44
2021/03/13 02:51:58;;;;;;;0.80;0.80;;;;;;;;;;5108269;28;20693;-44
2021/03/13 02:54:23;;;;;;;1.27;1.00;;;;;;;;;;5107718;28;20809;-44
2021/03/13 02:56:49;;;;;;;1.20;0.90;;;;;;;;;;5108578;28;20597;-44
2021/03/13 02:59:18;;;;;;;0.97;0.90;;;;;;;;;;5108469;28;20510;-44
2021/03/13 03:01:44;;;;;;;3.67;3.47;;;;;;;;;;5107865;28;20651;-44
2021/03/13 03:04:09;;;;;;;0.83;0.83;;;;;;;;;;5109534;28;20586;-44
2021/03/13 03:06:38;;;;;;;1.10;1.00;;;;;;;;;;5108638;28;20960;-44
2021/03/13 03:09:04;;;;;;;1.03;0.80;;;;;;;;;;5109713;28;20170;-44
2021/03/13 03:11:29;;;;;;;0.80;0.80;;;;;;;;;;5107838;28;20599;-44
2021/03/13 03:13:55;;;;;;;0.80;0.80;;;;;;;;;;5108715;28;20713;-44
2021/03/13 03:16:21;;;;;;;0.83;0.73;;;;;;;;;;5108714;28;20183;-44
2021/03/13 03:18:48;;;;;;;0.70;0.70;;;;;;;;;;5108570;28;20169;-44
2021/03/13 03:21:14;;;;;;;0.87;0.83;;;;;;;;;;5108158;28;20737;-44
2021/03/13 03:23:40;;;;;;;1.20;1.00;;;;;;;;;;5108589;28;20590;-44
2021/03/13 03:26:06;;;;;;;1.50;0.90;;;;;;;;;;5108490;28;20729;-44
2021/03/13 03:28:31;;;;;;;0.70;0.70;;;;;;;;;;5108060;28;20679;-43
2021/03/13 03:30:56;;;;;;;1.17;1.07;;;;;;;;;;5108488;28;20183;-43
2021/03/13 03:33:22;;;;;;;1.07;0.70;;;;;;;;;;5106504;28;20604;-43
2021/03/13 03:35:47;;;;;;;0.70;0.70;;;;;;;;;;5107666;28;20181;-43
2021/03/13 03:38:13;;;;;;;1.03;0.80;;;;;;;;;;5108844;28;20175;-42
2021/03/13 03:40:39;;;;;;;1.00;0.90;;;;;;;;;;5111852;28;20713;-42
2021/03/13 03:43:09;;;;;;;0.70;0.70;;;;;;;;;;5112620;28;20212;-43
2021/03/13 03:45:35;;;;;;;0.87;0.87;;;;;;;;;;5111262;28;20595;-43
2021/03/13 03:48:08;;;;;;;1.27;0.90;;;;;;;;;;5108801;28;20606;-43
2021/03/13 03:50:34;;;;;;;0.93;0.93;;;;;;;;;;5111632;28;20493;-43
2021/03/13 03:52:59;;;;;;;2.93;1.20;;;;;;;;;;5112783;28;20704;-43
2021/03/13 03:55:25;;;;;;;4.57;1.03;;;;;;;;;;5112119;28;21266;-46
2021/03/13 03:57:50;;;;;;;0.83;0.80;;;;;;;;;;5111664;28;20223;-42
2021/03/13 04:00:16;;;;;;;0.90;0.90;;;;;;;;;;5108144;28;20287;-44
2021/03/13 04:02:42;;;;;;;1.20;1.10;;;;;;;;;;5111776;28;20212;-44
2021/03/13 04:05:09;;;;;;;1.23;1.03;;;;;;;;;;5112958;28;20549;-44
2021/03/13 04:07:35;;;;;;;0.93;0.93;;;;;;;;;;5112040;28;20185;-44
2021/03/13 04:10:02;;;;;;;0.87;0.87;;;;;;;;;;5112186;28;20595;-44
2021/03/13 04:12:27;;;;;;;1.03;1.03;;;;;;;;;;5111797;28;20606;-44
2021/03/13 04:14:53;;;;;;;1.10;1.00;;;;;;;;;;5111470;28;20595;-44
2021/03/13 04:17:18;;;;;;;0.90;0.90;;;;;;;;;;5112001;28;20635;-43
2021/03/13 04:19:43;;;;;;;1.17;1.13;;;;;;;;;;5111507;28;20198;-43
2021/03/13 04:22:09;;;;;;;1.00;0.90;;;;;;;;;;5112013;28;20225;-43
2021/03/13 04:24:34;;;;;;;1.20;1.20;;;;;;;;;;5111438;28;20233;-43
2021/03/13 04:27:01;;;;;;;1.00;1.00;;;;;;;;;;5111320;28;20785;-44
2021/03/13 04:29:26;;;;;;;1.07;1.07;;;;;;;;;;5111680;28;20174;-44
2021/03/13 04:31:52;;;;;;;2.90;1.25;;;;;;;;;;5111568;28;20609;-44
2021/03/13 04:34:18;;;;;;;2.33;2.13;;;;;;;;;;5111315;28;20186;-44
2021/03/13 04:36:43;;;;;;;1.40;1.30;;;;;;;;;;5111312;28;20630;-46
2021/03/13 04:39:08;;;;;;;1.60;1.33;;;;;;;;;;5111581;28;20207;-44
2021/03/13 04:41:35;;;;;;;1.37;1.27;;;;;;;;;;5110763;28;20212;-43
2021/03/13 04:44:00;;;;;;;1.50;1.40;;;;;;;;;;5112073;28;20215;-43
2021/03/13 04:46:25;;;;;;;1.27;1.20;;;;;;;;;;5110249;28;20600;-43
2021/03/13 04:48:51;;;;;;;1.20;1.20;;;;;;;;;;5111504;28;20244;-44
2021/03/13 04:51:18;;;;;;;1.10;1.10;;;;;;;;;;5110709;28;20210;-43
2021/03/13 04:53:43;;;;;;;1.37;1.30;;;;;;;;;;5110203;28;20794;-43
2021/03/13 04:56:08;;;;;;;1.60;1.50;;;;;;;;;;5109577;28;20713;-43
2021/03/13 04:58:34;;;;;;;3.00;1.60;;;;;;;;;;5110608;28;20217;-43
2021/03/13 05:00:59;;;;;;;1.40;1.40;;;;;;;;;;5110710;28;20205;-43
2021/03/13 05:03:24;;;;;;;1.50;1.40;;;;;;;;;;5110923;28;20263;-43
2021/03/13 05:05:49;;;;;;;1.70;1.60;;;;;;;;;;5092556;28;20162;-43
2021/03/13 05:08:14;;;;;;;1.90;1.80;;;;;;;;;;5110561;28;20250;-43
2021/03/13 05:10:40;;;;;;;2.17;2.07;;;;;;;;;;5110125;28;20216;-43
2021/03/13 05:13:05;;;;;;;1.83;1.67;;;;;;;;;;5111384;28;20253;-43
2021/03/13 05:15:30;;;;;;;1.70;1.60;;;;;;;;;;5110255;28;20205;-43
2021/03/13 05:17:55;;;;;;;2.00;1.90;;;;;;;;;;5110115;28;20178;-43
2021/03/13 05:20:20;;;;;;;2.53;2.10;;;;;;;;;;5111333;28;20208;-43
2021/03/13 05:22:46;;;;;;;2.10;2.00;;;;;;;;;;5119828;27;20590;-43
2021/03/13 05:25:12;;;;;;;2.80;2.30;;;;;;;;;;5109724;28;20689;-43
2021/03/13 05:27:39;;;;;;;2.03;1.93;;;;;;;;;;5109938;28;20606;-43
2021/03/13 05:30:05;;;;;;;2.50;2.00;;;;;;;;;;5110422;28;20560;-43
2021/03/13 05:32:30;;;;;;;2.03;1.93;;;;;;;;;;5098134;28;21255;-43
2021/03/13 05:34:55;;;;;;;2.17;2.07;;;;;;;;;;5109098;28;20630;-43
2021/03/13 05:37:20;;;;;;;2.90;2.10;;;;;;;;;;5109024;28;20197;-43
2021/03/13 05:39:45;;;;;;;2.90;2.13;;;;;;;;;;5110675;28;20201;-43
2021/03/13 05:42:11;;;;;;;1.90;1.80;;;;;;;;;;5110315;28;20211;-43
2021/03/13 05:44:37;;;;;;;2.10;2.00;;;;;;;;;;5108488;28;20181;-42
2021/03/13 05:47:02;;;;;;;2.37;2.17;;;;;;;;;;5109388;28;20225;-43
2021/03/13 05:49:29;;;;;;;2.07;1.87;;;;;;;;;;5111065;28;21142;-43
2021/03/13 05:51:55;;;;;;;2.90;2.13;;;;;;;;;;5111993;27;20218;-43
2021/03/13 05:54:20;;;;;;;4.23;1.97;;;;;;;;;;5102895;28;20680;-43
2021/03/13 05:56:45;;;;;;;2.10;2.00;;;;;;;;;;5109748;28;20194;-42
2021/03/13 05:59:11;;;;;;;2.00;1.90;;;;;;;;;;5108976;28;20262;-43
2021/03/13 06:01:37;;;;;;;3.07;2.23;;;;;;;;;;5108284;28;20670;-45
2021/03/13 06:04:02;;;;;;;3.20;2.27;;;;;;;;;;5108036;28;20614;-44
2021/03/13 06:06:28;;;;;;;2.20;2.10;;;;;;;;;;5112199;27;20186;-42
2021/03/13 06:08:54;;;;;;;2.30;2.10;;;;;;;;;;5126803;27;20206;-43
2021/03/13 06:11:22;;;;;;;4.70;2.07;;;;;;;;;;5106989;27;21194;-43
2021/03/13 06:13:48;;;;;;;3.90;1.90;;;;;;;;;;5097410;28;20174;-44
2021/03/13 06:16:13;;;;;;;2.40;2.20;;;;;;;;;;5107953;28;21179;-43
2021/03/13 06:18:47;;;;;;;3.13;2.20;;;;;;;;;;5109195;28;20651;-42
2021/03/13 06:21:30;;;;;;;2.30;1.97;;;;;;;;;;5109326;28;20196;-43
2021/03/13 06:23:59;;;;;;;3.53;2.13;;;;;;;;;;5109967;28;20607;-43
2021/03/13 06:26:25;;;;;;;1.83;1.73;;;;;;;;;;5109209;28;21546;-43
2021/03/13 06:28:51;;;;;;;2.50;2.30;;;;;;;;;;5107659;28;20708;-43
2021/03/13 06:31:20;;;;;;;2.10;2.00;;;;;;;;;;5106443;28;20261;-43
2021/03/13 06:33:45;;;;;;;2.17;2.07;;;;;;;;;;5101614;28;20609;-43
2021/03/13 06:36:18;;;;;;;2.53;2.30;;;;;;;;;;5105665;28;20633;-44
2021/03/13 06:38:43;;;;;;;2.03;1.93;;;;;;;;;;5108622;28;20638;-44
2021/03/13 06:41:16;;;;;;;6.45;2.20;;;;;;;;;;5108961;28;21010;-44
2021/03/13 06:43:41;;;;;;;3.13;2.30;;;;;;;;;;5107168;28;20181;-44
2021/03/13 06:46:08;;;;;;;1.80;1.70;;;;;;;;;;5108175;28;20602;-44
2021/03/13 06:48:39;;;;;;;1.30;1.30;;;;;;;;;;5108903;28;20174;-44
2021/03/13 06:51:13;;;;;;;2.00;1.43;;;;;;;;;;5108775;28;20629;-43
2021/03/13 06:53:38;;;;;;;1.23;1.13;;;;;;;;;;5107918;28;21003;-43
2021/03/13 06:56:08;;;;;;;1.30;1.20;;;;;;;;;;5107903;28;20604;-43
2021/03/13 06:58:33;;;;;;;2.23;1.07;;;;;;;;;;5106443;28;20191;-43
2021/03/13 07:01:02;;;;;;;1.27;1.10;;;;;;;;;;5108035;28;21051;-44
2021/03/13 07:03:27;;;;;;;1.10;1.07;;;;;;;;;;5108115;28;20176;-43
2021/03/13 07:05:52;;;;;;;1.43;1.20;;;;;;;;;;5108207;28;21128;-43
2021/03/13 07:08:21;;;;;;;1.38;1.15;;;;;;;;;;5107143;28;20174;-43
2021/03/13 07:10:46;;;;;;;1.43;0.87;;;;;;;;;;5105581;28;20175;-43
2021/03/13 07:13:29;;;;;;;1.25;1.00;;;;;;;;;;5109114;28;20696;-42
2021/03/13 07:15:54;;;;;;;1.83;1.17;;;;;;;;;;5108792;28;20623;-44
2021/03/13 07:18:19;;;;;;;1.03;0.93;;;;;;;;;;5103192;28;20652;-44
2021/03/13 07:20:46;;;;;;;1.00;1.00;;;;;;;;;;5109134;28;20205;-43
2021/03/13 07:23:19;;;;;;;1.17;0.90;;;;;;;;;;5107012;28;20185;-43
2021/03/13 07:25:45;;;;;;;1.10;1.03;;;;;;;;;;5105045;28;21189;-43
2021/03/13 07:28:11;;;;;;;1.37;1.27;;;;;;;;;;5106378;28;20605;-43
2021/03/13 07:30:38;;;;;;;1.83;1.30;;;;;;;;;;5105793;28;20529;-44
2021/03/13 07:33:04;;;;;;;2.10;1.27;;;;;;;;;;5106914;28;21195;-44
2021/03/13 07:35:33;;;;;;;1.20;0.97;;;;;;;;;;5105680;28;20606;-44
2021/03/13 07:38:02;;;;;;;1.50;1.40;;;;;;;;;;5104427;28;20600;-44
2021/03/13 07:40:28;;;;;;;1.40;1.03;;;;;;;;;;5100156;28;20694;-43
2021/03/13 07:42:53;;;;;;;1.03;1.03;;;;;;;;;;5101639;28;20640;-44
2021/03/13 07:45:19;;;;;;;1.50;1.30;;;;;;;;;;5103901;28;20183;-44
2021/03/13 07:47:44;;;;;;;2.90;1.50;;;;;;;;;;5100759;28;20183;-44
2021/03/13 07:50:10;;;;;;;1.50;1.40;;;;;;;;;;5098785;28;20647;-44
2021/03/13 07:52:36;;;;;;;1.43;1.33;;;;;;;;;;5105075;28;20178;-44
2021/03/13 07:55:02;;;;;;;1.60;1.50;;;;;;;;;;5104973;28;20689;-44
2021/03/13 07:57:27;;;;;;;1.73;1.63;;;;;;;;;;5101359;28;20636;-44
2021/03/13 07:59:53;;;;;;;1.90;1.50;;;;;;;;;;5106398;28;20178;-43
2021/03/13 08:02:30;;;;;;;1.60;1.50;;;;;;;;;;5104941;28;20208;-43
2021/03/13 08:04:59;;;;;;;1.73;1.70;;;;;;;;;;5089729;28;20237;-43
2021/03/13 08:07:25;;;;;;;1.70;1.60;;;;;;;;;;5107382;28;20603;-44
2021/03/13 08:09:51;;;;;;;1.50;1.40;;;;;;;;;;5105504;28;20607;-43
2021/03/13 08:12:35;;;;;;;5.77;1.23;;;;;;;;;;5108339;28;21155;-44
2021/03/13 08:15:00;;;;;;;1.37;1.10;;;;;;;;;;5103882;28;20222;-44
2021/03/13 08:17:37;;;;;;;0.90;0.90;;;;;;;;;;5108715;28;20598;-44
2021/03/13 08:20:09;;;;;;;1.13;1.13;;;;;;;;;;5111617;28;20181;-44
2021/03/13 08:22:34;;;;;;;0.80;0.80;;;;;;;;;;5106629;28;21159;-44
2021/03/13 08:24:59;;;;;;;0.77;0.77;;;;;;;;;;5108068;28;20609;-43
2021/03/13 08:27:34;;;;;;;0.80;0.70;;;;;;;;;;5108912;28;21796;-43
2021/03/13 08:30:00;;;;;;;0.90;0.90;;;;;;;;;;5109792;28;20165;-43
2021/03/13 08:32:44;;;;;;;0.93;0.93;;;;;;;;;;5111620;28;20621;-43
2021/03/13 08:35:09;;;;;;;0.70;0.70;;;;;;;;;;5096567;28;20626;-43
2021/03/13 08:37:45;;;;;;;1.33;0.80;;;;;;;;;;5108814;28;20607;-41
2021/03/13 08:40:20;;;;;;;0.63;0.60;;;;;;;;;;5091358;28;20584;-43
2021/03/13 08:42:45;;;;;;;0.67;0.67;;;;;;;;;;5091536;28;21133;-42
2021/03/13 08:45:12;;;;;;;0.80;0.70;;;;;;;;;;5091649;28;20588;-43
2021/03/13 08:47:41;;;;;;;1.07;1.00;;;;;;;;;;5107654;28;20162;-43
2021/03/13 08:50:08;;;;;;;0.97;0.90;;;;;;;;;;5111943;28;20613;-43
2021/03/13 08:52:33;;;;;;;1.17;0.90;;;;;;;;;;5111342;28;20623;-43
2021/03/13 08:54:58;;;;;;;0.77;0.77;;;;;;;;;;5111623;28;20724;-43
2021/03/13 08:57:23;;;;;;;0.80;0.80;;;;;;;;;;5110827;28;20185;-44
2021/03/13 08:59:51;;;;;;;1.23;0.90;;;;;;;;;;5107413;28;20177;-44
2021/03/13 09:02:18;;;;;;;0.70;0.70;;;;;;;;;;5109585;28;20309;-44
2021/03/13 09:04:44;;;;;;;2.70;0.60;;;;;;;;;;5110874;28;20586;-44
2021/03/13 09:07:10;;;;;;;0.77;0.60;;;;;;;;;;5108964;28;20623;-44
2021/03/13 09:09:36;;;;;;;0.67;0.67;;;;;;;;;;5111634;28;21014;-45
2021/03/13 09:12:12;;;;;;;0.60;0.60;;;;;;;;;;5107814;28;20618;-44
2021/03/13 09:14:38;;;;;;;0.70;0.70;;;;;;;;;;5110047;28;21373;-43
2021/03/13 09:17:10;;;;;;;0.70;0.70;;;;;;;;;;5110318;27;20596;-45
2021/03/13 09:19:36;;;;;;;0.67;0.67;;;;;;;;;;5110208;28;20606;-44
2021/03/13 09:22:09;;;;;;;0.80;0.80;;;;;;;;;;5107081;28;20647;-43
2021/03/13 09:24:34;;;;;;;0.70;0.70;;;;;;;;;;5090104;28;20163;-45
2021/03/13 09:27:00;;;;;;;0.90;0.90;;;;;;;;;;5099262;28;20599;-44
2021/03/13 09:29:28;;;;;;;0.97;0.97;;;;;;;;;;5092454;28;20157;-45
2021/03/13 09:32:00;;;;;;;2.30;0.83;;;;;;;;;;5104297;27;20616;-44
2021/03/13 09:34:26;;;;;;;0.60;0.60;;;;;;;;;;5107915;28;20587;-45
2021/03/13 09:36:51;;;;;;;0.70;0.70;;;;;;;;;;5105576;28;20723;-44
2021/03/13 09:39:20;;;;;;;0.60;0.60;;;;;;;;;;5110005;28;20173;-43
2021/03/13 09:42:05;;;;;;;0.80;0.80;;;;;;;;;;5109721;28;20266;-44
2021/03/13 09:44:31;;;;;;;1.00;0.90;;;;;;;;;;5109241;28;20607;-43
2021/03/13 09:46:56;;;;;;;0.80;0.80;;;;;;;;;;5105497;28;20592;-44
2021/03/13 09:49:21;;;;;;;0.90;0.90;;;;;;;;;;5108340;28;21171;-44
2021/03/13 09:51:47;;;;;;;0.80;0.80;;;;;;;;;;5108636;28;20266;-44
2021/03/13 09:54:15;;;;;;;2.13;0.90;;;;;;;;;;5108014;28;20264;-44
2021/03/13 09:56:40;;;;;;;0.80;0.80;;;;;;;;;;5105416;28;20696;-43
2021/03/13 09:59:06;;;;;;;1.70;1.60;;;;;;;;;;5103844;27;20692;-43
2021/03/13 10:01:31;;;;;;;1.53;0.80;;;;;;;;;;5109825;28;20225;-43
2021/03/13 10:03:56;;;;;;;1.00;0.90;;;;;;;;;;5109802;28;20185;-43
2021/03/13 10:06:21;;;;;;;0.90;0.80;;;;;;;;;;5109786;28;20185;-43
2021/03/13 10:08:56;;;;;;;1.10;0.83;;;;;;;;;;5101648;28;20178;-43
2021/03/13 10:11:21;;;;;;;1.00;1.00;;;;;;;;;;5106114;28;20183;-44
2021/03/13 10:13:50;;;;;;;1.00;1.00;;;;;;;;;;5109319;28;20615;-42
2021/03/13 10:16:16;;;;;;;4.67;0.90;;;;;;;;;;5109791;27;20192;-43
2021/03/13 10:18:42;;;;;;;0.93;0.70;;;;;;;;;;5109087;28;20588;-44
2021/03/13 10:21:07;;;;;;;0.97;0.87;;;;;;;;;;5108324;28;20213;-44
2021/03/13 10:23:36;;;;;;;2.40;1.30;;;;;;;;;;5108346;28;20607;-46
2021/03/13 10:26:15;;;;;;;1.73;1.10;;;;;;;;;;5109226;28;20575;-44
2021/03/13 10:28:44;;;;;;;1.20;0.97;;;;;;;;;;5109367;28;20958;-46
2021/03/13 10:31:11;;;;;;;1.63;1.37;;;;;;;;;;5109218;28;20614;-44
2021/03/13 10:33:37;;;;;;;1.27;1.03;;;;;;;;;;5097977;28;20600;-44
2021/03/13 10:36:02;;;;;;;1.10;1.00;;;;;;;;;;5098566;28;20691;-43
2021/03/13 10:38:28;;;;;;;1.17;1.00;;;;;;;;;;5107408;28;20723;-43
2021/03/13 10:40:54;;;;;;;1.33;0.80;;;;;;;;;;5107810;28;20692;-44
2021/03/13 10:43:21;;;;;;;0.67;0.67;;;;;;;;;;5108527;28;20177;-43
2021/03/13 10:45:55;;;;;;;1.20;0.80;;;;;;;;;;5108607;28;20606;-45
2021/03/13 10:48:20;;;;;;;1.27;0.80;;;;;;;;;;5108204;28;20606;-44
2021/03/13 10:50:45;;;;;;;0.80;0.80;;;;;;;;;;5107783;28;20702;-48
2021/03/13 10:53:33;;;;;;;1.13;1.00;;;;;;;;;;5112626;27;20221;-43
2021/03/13 10:56:03;;;;;;;1.37;1.27;;;;;;;;;;5117185;27;20600;-44
2021/03/13 10:58:29;;;;;;;1.37;0.90;;;;;;;;;;5107991;28;21012;-44
2021/03/13 11:00:55;;;;;;;0.83;0.80;;;;;;;;;;5107903;28;20643;-42
2021/03/13 11:03:20;;;;;;;1.33;1.00;;;;;;;;;;5108344;28;20607;-42
2021/03/13 11:05:47;;;;;;;2.30;1.10;;;;;;;;;;5108697;28;20263;-44
2021/03/13 11:08:12;;;;;;;1.27;0.97;;;;;;;;;;5108007;28;20192;-44
2021/03/13 11:10:38;;;;;;;0.90;0.80;;;;;;;;;;5108442;28;20971;-44
2021/03/13 11:13:03;;;;;;;1.07;0.90;;;;;;;;;;5105827;28;20547;-46
2021/03/13 11:15:29;;;;;;;0.97;0.87;;;;;;;;;;5108062;28;20204;-43
2021/03/13 11:17:54;;;;;;;1.27;1.10;;;;;;;;;;5108631;28;20583;-44
2021/03/13 11:20:19;;;;;;;1.10;0.93;;;;;;;;;;5107808;28;20682;-44
2021/03/13 11:22:44;;;;;;;1.00;0.80;;;;;;;;;;5108217;28;20193;-43
2021/03/13 11:25:10;;;;;;;0.83;0.73;;;;;;;;;;5108483;28;20561;-45
2021/03/13 11:27:35;;;;;;;1.20;1.03;;;;;;;;;;5106111;28;20166;-42
2021/03/13 11:30:00;;;;;;;1.63;1.00;;;;;;;;;;5106983;28;20166;-44
2021/03/13 11:32:25;;;;;;;1.33;0.90;;;;;;;;;;5107810;28;20197;-45
2021/03/13 11:34:50;;;;;;;1.10;1.00;;;;;;;;;;5105599;28;20182;-44
2021/03/13 11:37:16;;;;;;;1.20;1.10;;;;;;;;;;5107870;28;20178;-46
2021/03/13 11:39:41;;;;;;;1.40;1.30;;;;;;;;;;5107702;28;20265;-44
2021/03/13 11:42:06;;;;;;;1.47;1.10;;;;;;;;;;5108547;28;20233;-44
2021/03/13 11:44:31;;;;;;;1.00;0.90;;;;;;;;;;5108034;28;20181;-45
2021/03/13 11:46:57;;;;;;;1.90;0.87;;;;;;;;;;5108208;28;20543;-44
2021/03/13 11:49:22;;;;;;;1.20;1.10;;;;;;;;;;5106860;28;20231;-45
2021/03/13 11:51:47;;;;;;;2.58;1.33;;;;;;;;;;5106748;28;20683;-44
2021/03/13 11:54:12;;;;;;;1.25;1.10;;;;;;;;;;5103300;28;20222;-44
2021/03/13 11:56:37;;;;;;;2.90;1.20;;;;;;;;;;5106011;28;20186;-46
2021/03/13 11:59:03;;;;;;;1.10;1.00;;;;;;;;;;5087688;28;20186;-44
2021/03/13 12:01:28;;;;;;;1.20;1.10;;;;;;;;;;5109135;28;20233;-45
2021/03/13 12:03:53;;;;;;;1.47;1.17;;;;;;;;;;5112114;27;20269;-44
2021/03/13 12:06:18;;;;;;;1.55;1.13;;;;;;;;;;5112230;28;20645;-43
2021/03/13 12:08:43;;;;;;;1.00;1.00;;;;;;;;;;5111597;28;20208;-42
2021/03/13 12:11:08;;;;;;;2.65;1.30;;;;;;;;;;5112048;28;20259;-43
2021/03/13 12:13:33;;;;;;;1.20;1.10;;;;;;;;;;5109767;28;20186;-43
2021/03/13 12:15:59;;;;;;;1.20;1.10;;;;;;;;;;5110319;28;20178;-43
2021/03/13 12:18:24;;;;;;;1.20;1.10;;;;;;;;;;5111026;28;20187;-44
2021/03/13 12:20:49;;;;;;;1.27;1.10;;;;;;;;;;5110079;28;20293;-47
2021/03/13 12:23:14;;;;;;;1.03;1.00;;;;;;;;;;5111567;28;20172;-44
2021/03/13 12:25:39;;;;;;;1.03;0.90;;;;;;;;;;5111696;28;20164;-42
2021/03/13 12:28:05;;;;;;;1.13;1.13;;;;;;;;;;5091078;28;20176;-44
2021/03/13 12:30:30;;;;;;;1.40;1.30;;;;;;;;;;5108740;28;20179;-44
2021/03/13 12:32:56;;;;;;;1.70;1.00;;;;;;;;;;5111471;28;20179;-45
2021/03/13 12:35:21;;;;;;;1.73;1.63;;;;;;;;;;5109699;28;20326;-43
2021/03/13 12:37:47;;;;;;;1.47;0.77;;;;;;;;;;5109779;28;21462;-44
2021/03/13 12:40:12;;;;;;;1.30;1.20;;;;;;;;;;5110155;28;20200;-44
2021/03/13 12:42:37;;;;;;;1.50;0.97;;;;;;;;;;5109785;28;20547;-44
2021/03/13 12:45:04;;;;;;;1.60;1.10;;;;;;;;;;5105173;28;20246;-44
2021/03/13 12:47:29;;;;;;;1.37;1.00;;;;;;;;;;5111442;27;20699;-44
2021/03/13 12:49:54;;;;;;;0.90;0.90;;;;;;;;;;5104133;28;20718;-43
2021/03/13 12:52:20;;;;;;;1.07;1.03;;;;;;;;;;5106961;27;20188;-43
2021/03/13 12:54:45;;;;;;;1.00;0.90;;;;;;;;;;5099743;28;20623;-44
2021/03/13 12:57:10;;;;;;;2.22;1.00;;;;;;;;;;5106813;28;20607;-44
2021/03/13 12:59:35;;;;;;;2.43;0.90;;;;;;;;;;5098315;28;20181;-44
2021/03/13 13:02:00;;;;;;;1.20;1.13;;;;;;;;;;5100934;28;20188;-45
2021/03/13 13:04:25;;;;;;;1.07;0.93;;;;;;;;;;5105210;28;20224;-43
2021/03/13 13:06:51;;;;;;;1.73;0.90;;;;;;;;;;5105639;28;20272;-44
2021/03/13 13:09:16;;;;;;;0.85;0.85;;;;;;;;;;5102466;27;20176;-44
2021/03/13 13:11:41;;;;;;;1.00;1.00;;;;;;;;;;5106413;28;20279;-45
2021/03/13 13:14:06;;;;;;;2.70;0.90;;;;;;;;;;5105620;28;20746;-44
2021/03/13 13:16:32;;;;;;;3.33;1.20;;;;;;;;;;5097741;28;20578;-44
2021/03/13 13:18:57;;;;;;;1.73;0.90;;;;;;;;;;5106996;28;20178;-42
2021/03/13 13:21:22;;;;;;;1.00;0.90;;;;;;;;;;5107546;28;20297;-44
2021/03/13 13:23:47;;;;;;;0.90;0.90;;;;;;;;;;5107781;28;20179;-43
2021/03/13 13:26:13;;;;;;;0.77;0.77;;;;;;;;;;5109276;27;20231;-43
2021/03/13 13:28:38;;;;;;;1.47;1.37;;;;;;;;;;5105968;28;20195;-43
2021/03/13 13:31:03;;;;;;;1.00;1.00;;;;;;;;;;5107525;28;20228;-43
2021/03/13 13:33:28;;;;;;;0.80;0.80;;;;;;;;;;5106998;28;20187;-44
2021/03/13 13:35:53;;;;;;;1.93;1.17;;;;;;;;;;5106185;28;20187;-43
2021/03/13 13:38:19;;;;;;;1.20;1.00;;;;;;;;;;5106275;28;20183;-43
2021/03/13 13:40:45;;;;;;;0.90;0.90;;;;;;;;;;5103918;28;20263;-44
2021/03/13 13:43:10;;;;;;;0.80;0.73;;;;;;;;;;5105896;28;20171;-42
2021/03/13 13:45:35;;;;;;;0.80;0.80;;;;;;;;;;5107198;28;20948;-43
2021/03/13 13:48:00;;;;;;;1.23;0.90;;;;;;;;;;5106277;28;20178;-42
2021/03/13 13:50:30;;;;;;;0.70;0.70;;;;;;;;;;5104977;28;20201;-44
2021/03/13 13:52:55;;;;;;;0.90;0.90;;;;;;;;;;5107254;28;20833;-44
2021/03/13 13:55:21;;;;;;;0.80;0.80;;;;;;;;;;5106622;28;20704;-44
2021/03/13 13:57:46;;;;;;;2.00;1.10;;;;;;;;;;5107013;28;20712;-44
2021/03/13 14:00:16;;;;;;;0.90;0.90;;;;;;;;;;5105677;28;20170;-44
2021/03/13 14:02:41;;;;;;;0.90;0.90;;;;;;;;;;5104031;28;20211;-43
2021/03/13 14:05:07;;;;;;;0.80;0.80;;;;;;;;;;5104589;28;20602;-44
2021/03/13 14:07:33;;;;;;;1.10;1.10;;;;;;;;;;5102409;28;20199;-43
2021/03/13 14:09:58;;;;;;;0.80;0.80;;;;;;;;;;5101304;28;20610;-43
2021/03/13 14:12:24;;;;;;;1.57;0.70;;;;;;;;;;5108717;28;21147;-44
2021/03/13 14:14:49;;;;;;;0.80;0.80;;;;;;;;;;5098823;28;20186;-44
2021/03/13 14:17:14;;;;;;;0.90;0.70;;;;;;;;;;5104458;28;20193;-47
2021/03/13 14:19:39;;;;;;;0.87;0.87;;;;;;;;;;5104959;28;20200;-43
2021/03/13 14:22:05;;;;;;;2.20;0.80;;;;;;;;;;5103291;28;20210;-43
2021/03/13 14:24:30;;;;;;;1.00;1.00;;;;;;;;;;5097354;28;20681;-44
2021/03/13 14:26:56;;;;;;;0.70;0.70;;;;;;;;;;5101267;28;20184;-44
2021/03/13 14:29:21;;;;;;;1.80;0.77;;;;;;;;;;5105243;27;20182;-44
2021/03/13 14:31:49;;;;;;;0.80;0.73;;;;;;;;;;5104119;28;20183;-43
2021/03/13 14:34:14;;;;;;;2.13;0.87;;;;;;;;;;5099228;28;20186;-44
2021/03/13 14:36:40;;;;;;;0.63;0.63;;;;;;;;;;5100580;28;20635;-43
2021/03/13 14:39:11;;;;;;;0.60;0.60;;;;;;;;;;5105741;28;20203;-43